Time;durP1;ratioP1;P1;durP2;ratioP2;P2;SDS_P1;SDS_P2;PMS_P1;PMS_P2;Temp;Humidity;BMP_temperature;BMP_pressure;BME280_temperature;BME280_humidity;BME280_pressure;Samples;Min_cycle;Max_cycle;Signal;HPM_P1;HPM_P2
2023/05/16 00:01:00;;;;;;;13.15;3.08;;;;;;;11.40;100.00;101807.63;4975649;28;20522;-73
2023/05/16 00:03:27;;;;;;;12.25;2.50;;;;;;;11.40;100.00;101815.50;4960422;28;20481;-72
2023/05/16 00:05:54;;;;;;;10.90;1.90;;;;;;;11.35;100.00;101808.03;4965854;28;20495;-74
2023/05/16 00:08:21;;;;;;;11.43;1.97;;;;;;;11.33;100.00;101817.81;4951261;28;20491;-72
2023/05/16 00:10:47;;;;;;;9.80;2.53;;;;;;;11.33;100.00;101819.59;4963062;28;20059;-73
2023/05/16 00:13:15;;;;;;;14.05;2.22;;;;;;;11.30;100.00;101812.81;4969531;28;20101;-73
2023/05/16 00:15:42;;;;;;;8.25;1.90;;;;;;;11.26;100.00;101816.66;4964014;28;20742;-73
2023/05/16 00:18:13;;;;;;;13.70;2.25;;;;;;;11.28;100.00;101820.81;4965408;28;20067;-73
2023/05/16 00:20:40;;;;;;;12.13;2.67;;;;;;;11.17;100.00;101818.25;4939622;28;20133;-73
2023/05/16 00:23:06;;;;;;;10.65;2.03;;;;;;;11.18;100.00;101819.09;4968644;28;20138;-73
2023/05/16 00:25:33;;;;;;;14.32;2.08;;;;;;;11.18;100.00;101814.66;4965723;28;20086;-73
2023/05/16 00:27:59;;;;;;;17.05;3.05;;;;;;;11.21;100.00;101819.69;4968579;28;20062;-74
2023/05/16 00:30:26;;;;;;;6.97;1.70;;;;;;;11.20;100.00;101828.50;4947429;28;20138;-74
2023/05/16 00:32:54;;;;;;;13.98;2.78;;;;;;;11.19;100.00;101816.34;4971560;28;20529;-73
2023/05/16 00:35:21;;;;;;;11.00;1.80;;;;;;;11.17;100.00;101822.66;4961956;28;20169;-73
2023/05/16 00:37:47;;;;;;;17.67;2.38;;;;;;;11.17;100.00;101825.28;4945841;28;20050;-74
2023/05/16 00:40:14;;;;;;;9.45;1.65;;;;;;;11.05;100.00;101827.97;4967750;28;20051;-73
2023/05/16 00:42:41;;;;;;;9.95;1.60;;;;;;;11.03;100.00;101829.88;4952828;28;20411;-73
2023/05/16 00:45:09;;;;;;;7.80;1.65;;;;;;;11.02;100.00;101832.63;4947325;28;20495;-73
2023/05/16 00:47:35;;;;;;;12.70;2.00;;;;;;;10.95;100.00;101834.09;4960064;28;20046;-74
2023/05/16 00:50:03;;;;;;;6.65;1.35;;;;;;;10.96;100.00;101836.59;4955125;28;20133;-73
2023/05/16 00:52:31;;;;;;;11.38;2.15;;;;;;;10.95;100.00;101837.53;4965412;28;20055;-73
2023/05/16 00:54:58;;;;;;;9.02;2.28;;;;;;;10.89;100.00;101830.97;4958100;28;20082;-73
2023/05/16 00:57:25;;;;;;;8.77;1.85;;;;;;;10.88;100.00;101828.50;4950288;28;20082;-73
2023/05/16 00:59:51;;;;;;;8.40;1.65;;;;;;;10.84;100.00;101832.34;4965386;28;20048;-74
2023/05/16 01:02:18;;;;;;;9.77;1.88;;;;;;;10.75;100.00;101833.06;4961038;28;20485;-74
2023/05/16 01:04:47;;;;;;;12.30;2.20;;;;;;;10.72;100.00;101828.88;4982025;28;20483;-73
2023/05/16 01:07:13;;;;;;;11.55;1.85;;;;;;;10.76;100.00;101832.94;4942480;28;20825;-74
2023/05/16 01:09:40;;;;;;;14.20;1.77;;;;;;;10.62;100.00;101827.94;4964989;28;20139;-73
2023/05/16 01:12:37;;;;;;;14.90;2.03;;;;;;;10.57;100.00;101835.38;4950429;28;20089;-74
2023/05/16 01:15:22;;;;;;;13.48;2.13;;;;;;;10.59;100.00;101838.69;4961603;28;20085;-73
2023/05/16 01:17:59;;;;;;;9.70;1.88;;;;;;;10.49;100.00;101836.78;4957749;28;20046;-74
2023/05/16 01:20:38;;;;;;;12.05;2.22;;;;;;;10.48;100.00;101842.97;4964345;28;20042;-74
2023/05/16 01:23:22;;;;;;;13.20;2.10;;;;;;;10.50;100.00;101840.25;4948377;28;20449;-73
2023/05/16 01:26:06;;;;;;;12.63;1.75;;;;;;;10.40;100.00;101842.75;4965233;28;20073;-74
2023/05/16 01:28:34;;;;;;;16.88;2.72;;;;;;;10.35;100.00;101844.94;4968159;28;20078;-74
2023/05/16 01:31:00;;;;;;;15.13;1.80;;;;;;;10.25;100.00;101850.03;4961216;28;20049;-73
2023/05/16 01:33:27;;;;;;;14.20;2.47;;;;;;;10.22;100.00;101839.75;4970018;28;20477;-74
2023/05/16 01:36:06;;;;;;;9.63;1.70;;;;;;;10.23;100.00;101838.81;4958673;28;20054;-73
2023/05/16 01:38:43;;;;;;;14.40;1.92;;;;;;;10.20;100.00;101846.91;4969255;28;20451;-73
2023/05/16 01:41:17;;;;;;;8.85;1.50;;;;;;;10.16;100.00;101839.41;4944498;28;20154;-72
2023/05/16 01:43:48;;;;;;;12.90;2.10;;;;;;;10.13;100.00;101839.63;4961197;28;20137;-73
2023/05/16 01:46:20;;;;;;;16.17;1.77;;;;;;;10.12;100.00;101843.22;4967929;28;20050;-74
2023/05/16 01:49:00;;;;;;;11.68;1.25;;;;;;;10.09;100.00;101846.91;4949275;28;20047;-73
2023/05/16 01:51:32;;;;;;;9.85;1.77;;;;;;;10.03;100.00;101835.09;4984329;28;20061;-73
2023/05/16 01:54:10;;;;;;;11.40;1.83;;;;;;;10.02;100.00;101837.84;4954848;28;20060;-73
2023/05/16 01:56:37;;;;;;;15.07;1.77;;;;;;;9.90;100.00;101837.84;4959055;28;20133;-73
2023/05/16 01:59:06;;;;;;;10.57;1.77;;;;;;;9.93;100.00;101835.94;4960701;28;20051;-73
2023/05/16 02:01:33;;;;;;;9.68;1.80;;;;;;;9.87;100.00;101837.22;4966056;28;20070;-74
2023/05/16 02:04:00;;;;;;;8.25;1.45;;;;;;;9.83;100.00;101841.88;4962214;28;20579;-72
2023/05/16 02:06:27;;;;;;;7.57;1.60;;;;;;;9.77;100.00;101837.09;4972132;28;20514;-73
2023/05/16 02:08:53;;;;;;;13.27;2.10;;;;;;;9.73;100.00;101838.28;4951041;28;20105;-73
2023/05/16 02:11:21;;;;;;;12.50;2.05;;;;;;;9.72;100.00;101843.63;4946474;28;20507;-74
2023/05/16 02:13:47;;;;;;;11.05;1.55;;;;;;;9.65;100.00;101844.09;4962999;28;20054;-73
2023/05/16 02:16:14;;;;;;;10.52;1.73;;;;;;;9.64;100.00;101849.44;4952551;28;20047;-73
2023/05/16 02:18:40;;;;;;;8.95;1.73;;;;;;;9.63;100.00;101843.38;4965779;28;20082;-73
2023/05/16 02:21:07;;;;;;;10.23;1.38;;;;;;;9.62;100.00;101856.56;4944614;28;20054;-73
2023/05/16 02:23:33;;;;;;;10.05;1.83;;;;;;;9.68;100.00;101849.13;4945712;28;20146;-72
2023/05/16 02:26:00;;;;;;;16.50;2.30;;;;;;;9.57;100.00;101856.09;4944825;28;20065;-73
2023/05/16 02:28:26;;;;;;;12.38;1.70;;;;;;;9.54;100.00;101859.75;4942480;28;20057;-74
2023/05/16 02:30:57;;;;;;;13.55;2.15;;;;;;;9.52;100.00;101864.28;4966321;28;20544;-72
2023/05/16 02:33:25;;;;;;;15.15;1.88;;;;;;;9.49;100.00;101860.13;4946641;28;20051;-73
2023/05/16 02:35:53;;;;;;;11.07;1.83;;;;;;;9.47;100.00;101864.63;4959124;28;20051;-73
2023/05/16 02:38:20;;;;;;;8.70;1.63;;;;;;;9.45;100.00;101866.53;4950939;28;20101;-73
2023/05/16 02:40:47;;;;;;;6.72;1.13;;;;;;;9.47;100.00;101867.25;4964703;28;20102;-73
2023/05/16 02:43:14;;;;;;;8.82;1.50;;;;;;;9.47;100.00;101858.56;4966969;28;20050;-73
2023/05/16 02:45:40;;;;;;;11.25;2.10;;;;;;;9.50;100.00;101877.50;4943629;28;20054;-73
2023/05/16 02:48:07;;;;;;;10.93;1.58;;;;;;;9.52;100.00;101866.91;4948862;28;20556;-73
2023/05/16 02:50:34;;;;;;;16.50;2.03;;;;;;;9.48;100.00;101874.16;4945068;28;20058;-73
2023/05/16 02:53:01;;;;;;;9.75;1.30;;;;;;;9.42;100.00;101877.22;4949495;28;20053;-73
2023/05/16 02:55:28;;;;;;;18.10;1.73;;;;;;;9.40;100.00;101881.75;4945030;28;20043;-76
2023/05/16 02:57:54;;;;;;;8.70;1.30;;;;;;;9.39;100.00;101884.47;4968615;28;20085;-76
2023/05/16 03:00:21;;;;;;;14.05;2.17;;;;;;;9.33;100.00;101879.69;4969777;28;20579;-72
2023/05/16 03:02:47;;;;;;;14.52;1.60;;;;;;;9.27;100.00;101881.81;4955905;28;20047;-72
2023/05/16 03:05:15;;;;;;;10.18;1.70;;;;;;;9.26;100.00;101885.38;4963563;28;20063;-73
2023/05/16 03:07:41;;;;;;;11.88;1.45;;;;;;;9.25;100.00;101890.72;4930538;28;20347;-73
2023/05/16 03:10:08;;;;;;;9.70;1.80;;;;;;;9.19;100.00;101889.41;4948918;28;20039;-73
2023/05/16 03:12:34;;;;;;;13.30;1.80;;;;;;;9.18;100.00;101886.88;4941132;28;20054;-73
2023/05/16 03:15:01;;;;;;;13.15;2.05;;;;;;;9.07;100.00;101888.47;4957072;28;20514;-72
2023/05/16 03:17:27;;;;;;;12.15;1.83;;;;;;;9.03;100.00;101889.66;4965449;28;20422;-72
2023/05/16 03:19:54;;;;;;;11.57;2.53;;;;;;;9.05;100.00;101900.84;4966669;28;20130;-73
2023/05/16 03:22:20;;;;;;;9.18;1.60;;;;;;;9.02;100.00;101901.06;4948731;28;20105;-72
2023/05/16 03:24:47;;;;;;;9.43;1.40;;;;;;;9.03;100.00;101899.28;4947917;28;20070;-73
2023/05/16 03:27:14;;;;;;;8.88;2.00;;;;;;;9.04;100.00;101899.19;4965843;28;20447;-73
2023/05/16 03:29:40;;;;;;;11.90;1.67;;;;;;;9.00;100.00;101896.91;4970124;28;20636;-72
2023/05/16 03:32:08;;;;;;;8.05;1.33;;;;;;;9.01;100.00;101895.94;4961976;28;20070;-73
2023/05/16 03:34:35;;;;;;;8.38;1.38;;;;;;;9.04;100.00;101903.59;4962146;28;20464;-72
2023/05/16 03:37:02;;;;;;;8.68;2.10;;;;;;;9.02;100.00;101910.72;4957640;28;20054;-73
2023/05/16 03:39:28;;;;;;;8.07;2.25;;;;;;;9.02;100.00;101905.47;4965269;28;20050;-73
2023/05/16 03:41:56;;;;;;;12.27;1.70;;;;;;;9.05;100.00;101918.34;4968384;28;20518;-73
2023/05/16 03:44:22;;;;;;;6.07;1.30;;;;;;;9.04;100.00;101920.13;4970939;28;20055;-73
2023/05/16 03:46:50;;;;;;;14.95;2.83;;;;;;;9.04;100.00;101924.53;4966436;28;20500;-73
2023/05/16 03:49:17;;;;;;;7.10;1.45;;;;;;;9.00;100.00;101915.22;4975197;28;20141;-73
2023/05/16 03:51:43;;;;;;;7.88;1.45;;;;;;;9.05;100.00;101918.34;4963278;28;20523;-73
2023/05/16 03:54:10;;;;;;;9.20;1.88;;;;;;;9.04;100.00;101922.75;4969602;28;20062;-73
2023/05/16 03:56:36;;;;;;;10.38;1.50;;;;;;;9.06;100.00;101922.63;4963389;28;20801;-73
2023/05/16 03:59:03;;;;;;;10.18;1.27;;;;;;;9.05;100.00;101920.94;4960964;28;20047;-72
2023/05/16 04:01:29;;;;;;;11.63;2.05;;;;;;;9.08;100.00;101929.41;4950181;28;20056;-72
2023/05/16 04:03:56;;;;;;;12.27;2.40;;;;;;;9.07;100.00;101932.97;4946061;28;20064;-72
2023/05/16 04:06:22;;;;;;;10.90;1.52;;;;;;;9.12;100.00;101927.44;4973965;28;20133;-72
2023/05/16 04:08:49;;;;;;;10.57;1.63;;;;;;;9.10;100.00;101924.09;4948772;28;20106;-72
2023/05/16 04:11:15;;;;;;;6.68;1.50;;;;;;;9.13;100.00;101936.94;4953717;28;20039;-72
2023/05/16 04:13:42;;;;;;;10.63;1.58;;;;;;;9.14;100.00;101930.78;4963448;28;20145;-72
2023/05/16 04:16:08;;;;;;;12.40;2.25;;;;;;;9.16;100.00;101938.53;4958929;28;20114;-73
2023/05/16 04:18:35;;;;;;;10.20;1.70;;;;;;;9.15;100.00;101932.44;4961725;28;20135;-72
2023/05/16 04:21:02;;;;;;;8.63;1.50;;;;;;;9.12;100.00;101932.66;4951932;28;20051;-72
2023/05/16 04:23:28;;;;;;;8.68;1.92;;;;;;;9.16;100.00;101936.72;4945492;28;20065;-73
2023/05/16 04:25:55;;;;;;;9.65;1.85;;;;;;;9.21;100.00;101942.47;4967002;28;20043;-72
2023/05/16 04:28:22;;;;;;;12.88;1.80;;;;;;;9.22;100.00;101945.94;4953281;28;20427;-72
2023/05/16 04:30:49;;;;;;;10.07;1.33;;;;;;;9.25;100.00;101945.69;4974518;28;20051;-72
2023/05/16 04:33:16;;;;;;;9.15;1.48;;;;;;;9.27;100.00;101942.03;4949175;28;20078;-71
2023/05/16 04:35:42;;;;;;;13.85;2.20;;;;;;;9.29;100.00;101948.00;4962943;28;20114;-72
2023/05/16 04:38:09;;;;;;;9.75;2.00;;;;;;;9.28;100.00;101946.31;4966918;28;20055;-72
2023/05/16 04:40:36;;;;;;;11.57;1.73;;;;;;;9.30;100.00;101946.22;4952079;28;20516;-72
2023/05/16 04:43:03;;;;;;;11.05;1.77;;;;;;;9.34;100.00;101952.91;4982249;28;20050;-71
2023/05/16 04:45:29;;;;;;;7.45;1.52;;;;;;;9.34;100.00;101955.50;4971359;28;20520;-72
2023/05/16 04:47:56;;;;;;;13.43;1.95;;;;;;;9.32;100.00;101952.16;4983096;28;20051;-73
2023/05/16 04:50:23;;;;;;;11.55;2.13;;;;;;;9.35;100.00;101958.97;4960690;28;20046;-73
2023/05/16 04:52:49;;;;;;;12.98;2.22;;;;;;;9.34;100.00;101958.13;4973099;28;20078;-72
2023/05/16 04:55:16;;;;;;;11.73;1.67;;;;;;;9.34;100.00;101968.59;4947531;29;20043;-71
2023/05/16 04:57:43;;;;;;;9.63;1.92;;;;;;;9.32;100.00;101967.88;4951533;28;20102;-71
2023/05/16 05:00:11;;;;;;;12.07;1.70;;;;;;;9.30;100.00;101973.22;4951046;28;20057;-72
2023/05/16 05:02:37;;;;;;;12.93;1.90;;;;;;;9.30;100.00;101962.75;4974278;28;20133;-71
2023/05/16 05:05:04;;;;;;;11.95;2.28;;;;;;;9.36;100.00;101968.50;4976685;28;20053;-71
2023/05/16 05:07:32;;;;;;;9.82;1.75;;;;;;;9.38;100.00;101984.94;4953560;28;20153;-71
2023/05/16 05:09:58;;;;;;;14.00;2.95;;;;;;;9.39;100.00;101976.13;4946045;28;20437;-72
2023/05/16 05:12:26;;;;;;;11.05;1.92;;;;;;;9.41;100.00;101974.22;4976385;28;20050;-71
2023/05/16 05:14:54;;;;;;;12.07;1.67;;;;;;;9.41;100.00;101982.94;4958078;28;20054;-72
2023/05/16 05:17:22;;;;;;;19.63;2.08;;;;;;;9.42;100.00;101986.38;4966436;28;20106;-72
2023/05/16 05:19:49;;;;;;;6.88;1.88;;;;;;;9.44;100.00;101984.50;4963557;28;20062;-72
2023/05/16 05:22:15;;;;;;;12.48;2.35;;;;;;;9.47;100.00;101992.16;4950333;28;20046;-72
2023/05/16 05:24:42;;;;;;;14.77;2.30;;;;;;;9.50;100.00;101984.88;4965698;28;20119;-72
2023/05/16 05:27:08;;;;;;;13.40;2.33;;;;;;;9.54;100.00;101990.72;4937775;28;20058;-72
2023/05/16 05:29:35;;;;;;;9.32;1.55;;;;;;;9.57;100.00;101990.53;4964154;28;20720;-72
2023/05/16 05:32:02;;;;;;;12.60;2.25;;;;;;;9.77;100.00;101993.47;4961626;28;20473;-72
2023/05/16 05:34:29;;;;;;;12.63;1.80;;;;;;;9.88;100.00;101990.91;4964083;28;20047;-72
2023/05/16 05:36:56;;;;;;;12.07;2.17;;;;;;;9.92;100.00;102000.22;4973461;28;20079;-72
2023/05/16 05:39:23;;;;;;;9.60;2.50;;;;;;;9.97;100.00;102000.69;4977358;28;20142;-72
2023/05/16 05:41:50;;;;;;;11.52;1.80;;;;;;;9.99;100.00;102003.22;4966119;28;20050;-72
2023/05/16 05:44:16;;;;;;;12.25;2.05;;;;;;;10.00;100.00;102002.28;4944893;28;20496;-72
2023/05/16 05:46:43;;;;;;;11.85;2.00;;;;;;;10.03;100.00;102002.03;4958533;28;20288;-72
2023/05/16 05:49:10;;;;;;;12.68;2.05;;;;;;;10.09;100.00;102007.66;4954475;28;20076;-72
2023/05/16 05:51:36;;;;;;;11.43;2.75;;;;;;;10.17;100.00;102008.88;4984905;28;20637;-72
2023/05/16 05:54:03;;;;;;;9.52;1.55;;;;;;;10.26;100.00;102014.25;4982071;28;20112;-72
2023/05/16 05:56:29;;;;;;;10.32;2.58;;;;;;;10.27;100.00;102015.09;4953168;28;20117;-72
2023/05/16 05:58:56;;;;;;;9.40;1.77;;;;;;;10.21;100.00;102013.78;4959486;28;20054;-72
2023/05/16 06:01:23;;;;;;;9.35;1.98;;;;;;;10.28;100.00;102019.41;4967766;28;20050;-72
2023/05/16 06:03:50;;;;;;;14.65;2.65;;;;;;;10.26;100.00;102023.91;4946207;28;20137;-73
2023/05/16 06:06:17;;;;;;;10.95;2.05;;;;;;;10.17;100.00;102020.19;4970255;28;20142;-73
2023/05/16 06:08:43;;;;;;;9.00;1.63;;;;;;;10.19;100.00;102026.19;4963277;28;20148;-72
2023/05/16 06:11:10;;;;;;;11.60;1.58;;;;;;;10.17;100.00;102022.81;4960321;28;20054;-71
2023/05/16 06:13:36;;;;;;;5.53;1.60;;;;;;;10.18;100.00;102021.03;4941491;28;20059;-72
2023/05/16 06:16:03;;;;;;;9.25;1.70;;;;;;;10.24;100.00;102026.66;4976104;28;20492;-71
2023/05/16 06:18:31;;;;;;;12.00;2.43;;;;;;;10.23;100.00;102027.63;4941107;28;20898;-72
2023/05/16 06:20:57;;;;;;;12.13;1.90;;;;;;;10.23;100.00;102032.00;4960899;28;20099;-71
2023/05/16 06:23:24;;;;;;;8.65;1.95;;;;;;;10.33;100.00;102033.03;4940338;28;20059;-72
2023/05/16 06:25:51;;;;;;;11.23;1.92;;;;;;;10.34;100.00;102023.38;4945402;28;21326;-71
2023/05/16 06:28:17;;;;;;;8.68;2.10;;;;;;;10.42;100.00;102028.88;4966354;28;20051;-72
2023/05/16 06:30:45;;;;;;;13.55;2.38;;;;;;;10.46;100.00;102030.31;4960797;28;20059;-71
2023/05/16 06:33:14;;;;;;;10.57;1.83;;;;;;;10.54;100.00;102029.75;4976919;28;20109;-72
2023/05/16 06:35:40;;;;;;;;;;;;;;;10.65;100.00;102042.88;4955313;28;20118;-72
2023/05/16 06:38:07;;;;;;;14.38;1.90;;;;;;;10.72;100.00;102040.63;4971902;28;19937;-72
2023/05/16 06:40:33;;;;;;;11.98;2.78;;;;;;;10.74;100.00;102039.56;4950955;28;20051;-72
2023/05/16 06:43:00;;;;;;;8.35;1.95;;;;;;;10.76;100.00;102036.78;4967904;28;20524;-71
2023/05/16 06:45:26;;;;;;;11.75;2.33;;;;;;;10.70;100.00;102040.72;4949513;28;20094;-71
2023/05/16 06:47:55;;;;;;;8.18;1.80;;;;;;;10.69;100.00;102037.28;4961883;28;20055;-71
2023/05/16 06:50:23;;;;;;;10.30;1.60;;;;;;;10.79;100.00;102037.41;4944858;28;20054;-71
2023/05/16 06:52:49;;;;;;;9.75;2.10;;;;;;;10.85;100.00;102041.34;4958244;28;20492;-71
2023/05/16 06:55:16;;;;;;;13.75;2.25;;;;;;;10.86;100.00;102045.66;4962061;28;20047;-71
2023/05/16 06:57:42;;;;;;;11.77;2.15;;;;;;;10.89;100.00;102040.97;4952006;28;20059;-71
2023/05/16 07:00:09;;;;;;;7.13;1.60;;;;;;;10.80;100.00;102044.34;4939670;29;20110;-73
2023/05/16 07:02:36;;;;;;;13.10;2.10;;;;;;;10.89;100.00;102037.53;4952460;28;20062;-70
2023/05/16 07:05:03;;;;;;;4.35;1.20;;;;;;;10.99;100.00;102037.66;4948718;28;20062;-73
2023/05/16 07:07:30;;;;;;;10.13;1.95;;;;;;;10.94;100.00;102032.78;4964602;28;20050;-73
2023/05/16 07:09:56;;;;;;;9.82;1.70;;;;;;;10.99;100.00;102033.22;4977240;28;20131;-72
2023/05/16 07:12:23;;;;;;;9.35;1.60;;;;;;;11.04;100.00;102036.34;4963985;28;20050;-73
2023/05/16 07:14:50;;;;;;;5.72;1.20;;;;;;;11.10;100.00;102031.56;4949043;28;20153;-73
2023/05/16 07:17:16;;;;;;;7.03;1.45;;;;;;;11.16;100.00;102034.53;4963690;28;20133;-72
2023/05/16 07:19:44;;;;;;;6.75;1.40;;;;;;;11.30;100.00;102043.97;4965978;28;20355;-72
2023/05/16 07:22:11;;;;;;;9.05;1.30;;;;;;;11.46;99.88;102035.69;4959473;28;20495;-72
2023/05/16 07:24:37;;;;;;;7.30;1.40;;;;;;;11.65;98.34;102037.69;4953842;28;20063;-72
2023/05/16 07:27:04;;;;;;;12.63;1.63;;;;;;;11.82;94.61;102038.97;4948663;28;20082;-73
2023/05/16 07:29:30;;;;;;;5.30;1.00;;;;;;;11.83;86.95;102038.81;4949569;28;20400;-71
2023/05/16 07:31:57;;;;;;;8.18;1.00;;;;;;;11.87;84.13;102042.03;4986606;28;20613;-72
2023/05/16 07:34:23;;;;;;;5.68;1.10;;;;;;;11.84;83.56;102044.94;4963285;28;20520;-71
2023/05/16 07:36:50;;;;;;;5.70;1.27;;;;;;;11.72;80.93;102036.25;4970566;28;20078;-72
2023/05/16 07:39:16;;;;;;;8.80;1.25;;;;;;;11.72;83.35;102048.53;4964097;28;20047;-72
2023/05/16 07:41:43;;;;;;;3.72;0.82;;;;;;;11.74;81.92;102039.59;4964768;28;20051;-71
2023/05/16 07:44:09;;;;;;;7.97;1.02;;;;;;;11.72;81.66;102056.41;4958936;28;20051;-72
2023/05/16 07:46:36;;;;;;;7.07;1.17;;;;;;;11.75;80.20;102046.50;4971648;28;20076;-71
2023/05/16 07:49:03;;;;;;;6.40;1.20;;;;;;;11.84;80.85;102039.69;4967994;28;20479;-72
2023/05/16 07:51:30;;;;;;;5.88;0.98;;;;;;;11.98;79.64;102049.09;4946237;28;20050;-72
2023/05/16 07:53:57;;;;;;;5.43;0.98;;;;;;;12.07;79.80;102048.31;4953900;28;20074;-71
2023/05/16 07:56:23;;;;;;;5.00;1.02;;;;;;;12.16;80.78;102036.22;4945456;28;20058;-71
2023/05/16 07:58:50;;;;;;;3.72;1.02;;;;;;;12.15;74.44;102040.66;4965110;28;20109;-71
2023/05/16 08:01:16;;;;;;;7.75;1.20;;;;;;;12.25;76.41;102040.69;4959082;28;20684;-72
2023/05/16 08:03:43;;;;;;;7.20;1.02;;;;;;;12.32;76.16;102038.41;4988804;28;20164;-71
2023/05/16 08:06:10;;;;;;;7.97;1.33;;;;;;;12.37;76.34;102042.34;4964772;28;20162;-71
2023/05/16 08:08:36;;;;;;;4.70;1.02;;;;;;;12.52;79.36;102042.81;4972252;28;20047;-71
2023/05/16 08:11:04;;;;;;;5.22;0.90;;;;;;;12.54;73.62;102051.41;4960130;28;20109;-73
2023/05/16 08:13:31;;;;;;;8.03;0.87;;;;;;;12.56;74.63;102052.13;4954293;28;20058;-72
2023/05/16 08:15:57;;;;;;;4.97;0.85;;;;;;;12.66;74.45;102050.41;4968500;28;20914;-71
2023/05/16 08:18:24;;;;;;;7.90;1.67;;;;;;;12.76;74.47;102050.47;4982170;28;20055;-72
2023/05/16 08:20:51;;;;;;;4.97;0.77;;;;;;;12.98;71.37;102044.19;4957549;28;20109;-71
2023/05/16 08:23:17;;;;;;;6.72;1.20;;;;;;;13.15;71.24;102047.16;4965369;28;20070;-72
2023/05/16 08:25:44;;;;;;;4.63;0.70;;;;;;;13.14;70.86;102043.69;4961670;28;20076;-71
2023/05/16 08:28:10;;;;;;;4.15;0.93;;;;;;;13.22;69.01;102038.56;4951379;28;20042;-71
2023/05/16 08:30:37;;;;;;;6.30;1.02;;;;;;;13.23;67.54;102047.31;4956106;28;20053;-71
2023/05/16 08:33:09;;;;;;;6.05;1.00;;;;;;;13.32;68.68;102049.19;4977926;28;20585;-70
2023/05/16 08:35:36;;;;;;;6.00;1.05;;;;;;;13.30;67.96;102059.03;4982186;28;20051;-71
2023/05/16 08:38:02;;;;;;;6.35;0.73;;;;;;;13.17;70.30;102061.03;4943340;28;20055;-73
2023/05/16 08:40:30;;;;;;;7.45;1.15;;;;;;;13.22;74.77;102058.84;4960642;28;20082;-71
2023/05/16 08:42:57;;;;;;;6.60;1.27;;;;;;;13.18;73.79;102052.16;4963244;28;20047;-71
2023/05/16 08:45:24;;;;;;;2.75;0.90;;;;;;;13.47;75.18;102070.72;4952745;28;20062;-71
2023/05/16 08:47:54;;;;;;;5.53;1.15;;;;;;;13.79;70.79;102059.94;4979113;28;20139;-72
2023/05/16 08:50:24;;;;;;;5.82;1.17;;;;;;;14.19;66.90;102059.00;4983764;28;20050;-71
2023/05/16 08:52:52;;;;;;;3.67;0.90;;;;;;;14.57;64.52;102049.38;4963954;28;20058;-72
2023/05/16 08:55:21;;;;;;;5.32;0.93;;;;;;;14.87;61.70;102054.59;4965378;28;20058;-71
2023/05/16 08:57:51;;;;;;;2.85;0.70;;;;;;;14.92;61.10;102049.72;4989675;28;20558;-72
2023/05/16 09:00:21;;;;;;;5.82;1.02;;;;;;;15.28;61.06;102047.19;4947368;28;20050;-70
2023/05/16 09:02:48;;;;;;;6.55;1.67;;;;;;;15.14;57.99;102045.84;4956757;28;20759;-71
2023/05/16 09:05:16;;;;;;;2.63;0.60;;;;;;;15.39;58.11;102054.91;4978231;28;20070;-71
2023/05/16 09:07:44;;;;;;;5.57;1.20;;;;;;;15.74;56.95;102045.38;4956256;28;20059;-72
2023/05/16 09:10:12;;;;;;;4.47;0.60;;;;;;;16.12;58.16;102054.00;4959463;28;20137;-71
2023/05/16 09:12:40;;;;;;;3.15;0.75;;;;;;;16.32;55.08;102052.00;4971346;28;20058;-73
2023/05/16 09:15:09;;;;;;;2.90;0.50;;;;;;;16.56;55.57;102048.69;4982736;28;20078;-73
2023/05/16 09:17:42;;;;;;;3.70;0.60;;;;;;;16.70;56.24;102058.72;4952425;28;20047;-71
2023/05/16 09:20:17;;;;;;;6.43;0.70;;;;;;;17.03;54.88;102040.34;4966171;28;20059;-73
2023/05/16 09:22:58;;;;;;;3.05;0.60;;;;;;;16.94;55.09;102044.78;4964127;28;20062;-69
2023/05/16 09:25:27;;;;;;;5.03;0.85;;;;;;;16.85;53.94;102043.09;4941342;28;20085;-71
2023/05/16 09:28:00;;;;;;;4.63;0.90;;;;;;;16.61;53.66;102052.53;4960267;28;20057;-71
2023/05/16 09:30:33;;;;;;;2.95;0.60;;;;;;;16.25;55.00;102054.44;4967398;28;20050;-71
2023/05/16 09:33:00;;;;;;;2.70;0.60;;;;;;;16.18;57.03;102061.31;4952336;28;20134;-72
2023/05/16 09:35:27;;;;;;;4.63;1.00;;;;;;;16.12;57.25;102057.47;4956144;28;20148;-71
2023/05/16 09:37:57;;;;;;;5.25;1.05;;;;;;;15.91;57.57;102049.84;4964657;28;20062;-71
2023/05/16 09:40:23;;;;;;;3.88;0.90;;;;;;;15.68;56.47;102067.09;4946610;28;20094;-70
2023/05/16 09:43:03;;;;;;;4.63;0.80;;;;;;;15.57;56.14;102065.53;4978178;28;20097;-71
2023/05/16 09:45:31;;;;;;;3.45;0.60;;;;;;;15.56;57.33;102063.84;4962131;28;20175;-71
2023/05/16 09:48:17;;;;;;;5.20;0.70;;;;;;;15.42;57.93;102060.72;4952672;28;20654;-71
2023/05/16 09:50:52;;;;;;;5.00;1.00;;;;;;;15.63;57.38;102063.09;4966011;28;20693;-73
2023/05/16 09:53:40;;;;;;;11.48;1.00;;;;;;;15.98;57.61;102058.03;4961579;28;20328;-72
2023/05/16 09:56:11;;;;;;;5.85;0.90;;;;;;;16.43;56.85;102049.09;4957210;28;20051;-73
2023/05/16 09:58:39;;;;;;;4.25;0.90;;;;;;;17.05;56.30;102046.31;4946010;28;20050;-71
2023/05/16 10:01:07;;;;;;;18.40;1.13;;;;;;;17.48;55.65;102046.31;4953935;28;20467;-71
2023/05/16 10:03:35;;;;;;;4.60;0.90;;;;;;;17.68;53.23;102042.38;4945920;28;20070;-71
2023/05/16 10:06:04;;;;;;;3.00;1.00;;;;;;;17.31;52.72;102042.78;4948218;28;20054;-70
2023/05/16 10:08:36;;;;;;;4.65;0.95;;;;;;;16.77;53.17;102048.31;4942899;28;20562;-71
2023/05/16 10:11:04;;;;;;;3.40;0.80;;;;;;;16.45;52.98;102047.13;4952510;28;20070;-70
2023/05/16 10:13:33;;;;;;;5.57;1.13;;;;;;;16.58;53.51;102054.66;4969546;28;20053;-70
2023/05/16 10:16:06;;;;;;;5.07;0.95;;;;;;;16.32;52.40;102052.81;4963819;28;20558;-70
2023/05/16 10:18:34;;;;;;;4.95;0.75;;;;;;;16.51;51.49;102041.22;4975098;28;20094;-70
2023/05/16 10:21:06;;;;;;;3.13;0.80;;;;;;;16.94;50.47;102036.84;4972809;28;20511;-71
2023/05/16 10:23:40;;;;;;;6.32;1.10;;;;;;;17.17;54.11;102042.41;4978596;28;20268;-71
2023/05/16 10:26:07;;;;;;;7.40;1.33;;;;;;;17.00;50.91;102049.47;4965469;28;20063;-70
2023/05/16 10:28:39;;;;;;;5.75;0.90;;;;;;;16.88;52.02;102047.25;4967743;28;20097;-73
2023/05/16 10:31:07;;;;;;;5.75;1.00;;;;;;;16.75;51.58;102052.94;4969643;28;20077;-73
2023/05/16 10:33:34;;;;;;;5.13;1.00;;;;;;;16.68;53.16;102044.81;4965232;28;20059;-73
2023/05/16 10:36:02;;;;;;;3.47;0.90;;;;;;;16.91;52.49;102052.22;4964752;28;20113;-71
2023/05/16 10:38:29;;;;;;;7.13;0.90;;;;;;;17.23;52.94;102050.69;4955651;28;20116;-72
2023/05/16 10:40:57;;;;;;;3.35;0.73;;;;;;;17.04;50.46;102039.38;4955899;28;20110;-70
2023/05/16 10:43:25;;;;;;;5.60;1.10;;;;;;;17.13;50.75;102042.88;4946111;28;20062;-71
2023/05/16 10:46:01;;;;;;;5.78;1.00;;;;;;;17.15;51.26;102038.25;4971520;28;20047;-72
2023/05/16 10:48:34;;;;;;;5.85;0.90;;;;;;;17.18;51.78;102040.59;4948099;28;20055;-74
2023/05/16 10:51:02;;;;;;;6.35;1.15;;;;;;;17.26;51.01;102043.25;4979329;28;20119;-72
2023/05/16 10:53:32;;;;;;;3.83;0.70;;;;;;;17.30;48.95;102035.81;4952315;29;20055;-71
2023/05/16 10:55:59;;;;;;;5.18;0.95;;;;;;;17.65;48.37;102031.25;4944807;28;20059;-72
2023/05/16 10:58:31;;;;;;;5.13;0.98;;;;;;;18.08;47.96;102032.81;4986819;28;20129;-72
2023/05/16 11:01:31;;;;;;;5.82;0.93;;;;;;;17.82;48.55;102034.75;4957244;28;20051;-72
2023/05/16 11:03:58;;;;;;;6.95;1.10;;;;;;;17.47;49.29;102042.81;4960751;28;20578;-71
2023/05/16 11:06:27;;;;;;;4.53;0.90;;;;;;;17.29;49.80;102048.25;4953166;28;20373;-71
2023/05/16 11:09:25;;;;;;;3.80;0.80;;;;;;;17.03;50.59;102050.13;4960611;28;20557;-71
2023/05/16 11:11:58;;;;;;;6.43;1.50;;;;;;;17.07;51.22;102047.03;4955169;28;20057;-71
2023/05/16 11:14:31;;;;;;;6.05;1.23;;;;;;;17.53;49.64;102038.69;4953537;28;20129;-72
2023/05/16 11:17:02;;;;;;;5.03;0.95;;;;;;;17.67;51.27;102040.72;4964472;28;20130;-72
2023/05/16 11:19:48;;;;;;;8.45;1.23;;;;;;;17.63;50.07;102036.72;4952416;28;20051;-72
2023/05/16 11:22:18;;;;;;;6.50;1.02;;;;;;;17.50;49.74;102045.13;4953457;28;20153;-72
2023/05/16 11:25:10;;;;;;;5.95;1.10;;;;;;;17.41;46.57;102042.66;4953967;28;20470;-72